sensor_id;sensor_type;location;lat;lon;timestamp;P1;durP1;ratioP1;P2;durP2;ratioP2
80557;SDS011;69901;43.524;-5.636;2023-11-19T00:02:12;18.63;;;16.75;;
80557;SDS011;69901;43.524;-5.636;2023-11-19T00:04:37;18.10;;;16.40;;
80557;SDS011;69901;43.524;-5.636;2023-11-19T00:07:06;17.63;;;16.02;;
80557;SDS011;69901;43.524;-5.636;2023-11-19T00:09:35;18.63;;;16.67;;
80557;SDS011;69901;43.524;-5.636;2023-11-19T00:12:05;19.63;;;17.73;;
80557;SDS011;69901;43.524;-5.636;2023-11-19T00:14:31;17.27;;;15.57;;
80557;SDS011;69901;43.524;-5.636;2023-11-19T00:16:56;19.23;;;17.23;;
80557;SDS011;69901;43.524;-5.636;2023-11-19T00:19:22;18.37;;;16.53;;
80557;SDS011;69901;43.524;-5.636;2023-11-19T00:21:47;18.97;;;16.80;;
80557;SDS011;69901;43.524;-5.636;2023-11-19T00:24:13;17.23;;;15.57;;
80557;SDS011;69901;43.524;-5.636;2023-11-19T00:26:41;17.83;;;16.17;;
80557;SDS011;69901;43.524;-5.636;2023-11-19T00:29:07;18.05;;;16.52;;
80557;SDS011;69901;43.524;-5.636;2023-11-19T00:31:33;17.85;;;16.25;;
80557;SDS011;69901;43.524;-5.636;2023-11-19T00:33:59;17.50;;;15.77;;
80557;SDS011;69901;43.524;-5.636;2023-11-19T00:36:24;18.87;;;17.17;;
80557;SDS011;69901;43.524;-5.636;2023-11-19T00:38:50;18.98;;;17.27;;
80557;SDS011;69901;43.524;-5.636;2023-11-19T00:41:17;17.48;;;15.88;;
80557;SDS011;69901;43.524;-5.636;2023-11-19T00:43:43;17.83;;;16.30;;
80557;SDS011;69901;43.524;-5.636;2023-11-19T00:46:09;22.10;;;20.02;;
80557;SDS011;69901;43.524;-5.636;2023-11-19T00:48:36;21.63;;;19.75;;
80557;SDS011;69901;43.524;-5.636;2023-11-19T00:51:01;18.07;;;16.47;;
80557;SDS011;69901;43.524;-5.636;2023-11-19T00:53:28;18.20;;;16.50;;
80557;SDS011;69901;43.524;-5.636;2023-11-19T00:55:54;19.90;;;17.97;;
80557;SDS011;69901;43.524;-5.636;2023-11-19T00:58:19;19.05;;;17.23;;
80557;SDS011;69901;43.524;-5.636;2023-11-19T01:00:45;19.43;;;17.50;;
80557;SDS011;69901;43.524;-5.636;2023-11-19T01:03:10;18.63;;;16.93;;
80557;SDS011;69901;43.524;-5.636;2023-11-19T01:05:36;18.05;;;16.45;;
80557;SDS011;69901;43.524;-5.636;2023-11-19T01:08:02;19.77;;;18.00;;
80557;SDS011;69901;43.524;-5.636;2023-11-19T01:10:29;18.75;;;17.05;;
80557;SDS011;69901;43.524;-5.636;2023-11-19T01:12:55;19.65;;;17.60;;
80557;SDS011;69901;43.524;-5.636;2023-11-19T01:15:21;18.33;;;16.83;;
80557;SDS011;69901;43.524;-5.636;2023-11-19T01:17:46;17.15;;;15.45;;
80557;SDS011;69901;43.524;-5.636;2023-11-19T01:20:12;17.10;;;15.60;;
80557;SDS011;69901;43.524;-5.636;2023-11-19T01:22:38;16.40;;;14.90;;
80557;SDS011;69901;43.524;-5.636;2023-11-19T01:25:05;16.98;;;15.45;;
80557;SDS011;69901;43.524;-5.636;2023-11-19T01:27:31;20.43;;;18.37;;
80557;SDS011;69901;43.524;-5.636;2023-11-19T01:29:56;28.95;;;23.27;;
80557;SDS011;69901;43.524;-5.636;2023-11-19T01:32:22;31.13;;;25.03;;
80557;SDS011;69901;43.524;-5.636;2023-11-19T01:34:50;30.85;;;23.23;;
80557;SDS011;69901;43.524;-5.636;2023-11-19T01:37:16;37.40;;;26.77;;
80557;SDS011;69901;43.524;-5.636;2023-11-19T01:39:44;33.27;;;25.53;;
80557;SDS011;69901;43.524;-5.636;2023-11-19T01:42:10;34.25;;;25.48;;
80557;SDS011;69901;43.524;-5.636;2023-11-19T01:44:37;28.70;;;25.48;;
80557;SDS011;69901;43.524;-5.636;2023-11-19T01:47:03;25.97;;;23.40;;
80557;SDS011;69901;43.524;-5.636;2023-11-19T01:49:30;25.95;;;23.42;;
80557;SDS011;69901;43.524;-5.636;2023-11-19T01:51:58;24.17;;;21.80;;
80557;SDS011;69901;43.524;-5.636;2023-11-19T01:54:24;21.85;;;19.58;;
80557;SDS011;69901;43.524;-5.636;2023-11-19T01:56:50;22.67;;;20.25;;
80557;SDS011;69901;43.524;-5.636;2023-11-19T01:59:17;21.27;;;19.00;;
80557;SDS011;69901;43.524;-5.636;2023-11-19T02:01:45;20.58;;;18.60;;
80557;SDS011;69901;43.524;-5.636;2023-11-19T02:04:11;18.83;;;16.98;;
80557;SDS011;69901;43.524;-5.636;2023-11-19T02:06:37;19.92;;;18.13;;
80557;SDS011;69901;43.524;-5.636;2023-11-19T02:09:08;18.73;;;16.90;;
80557;SDS011;69901;43.524;-5.636;2023-11-19T02:11:34;17.48;;;15.88;;
80557;SDS011;69901;43.524;-5.636;2023-11-19T02:14:00;18.83;;;17.23;;
80557;SDS011;69901;43.524;-5.636;2023-11-19T02:16:28;20.65;;;18.75;;
80557;SDS011;69901;43.524;-5.636;2023-11-19T02:18:54;19.70;;;18.10;;
80557;SDS011;69901;43.524;-5.636;2023-11-19T02:21:19;18.90;;;17.20;;
80557;SDS011;69901;43.524;-5.636;2023-11-19T02:23:45;17.35;;;15.75;;
80557;SDS011;69901;43.524;-5.636;2023-11-19T02:26:46;17.57;;;15.70;;
80557;SDS011;69901;43.524;-5.636;2023-11-19T02:29:10;15.73;;;14.23;;
80557;SDS011;69901;43.524;-5.636;2023-11-19T02:31:36;17.40;;;15.80;;
80557;SDS011;69901;43.524;-5.636;2023-11-19T02:34:02;17.97;;;16.37;;
80557;SDS011;69901;43.524;-5.636;2023-11-19T02:36:27;18.13;;;16.30;;
80557;SDS011;69901;43.524;-5.636;2023-11-19T02:38:53;17.60;;;15.90;;
80557;SDS011;69901;43.524;-5.636;2023-11-19T02:41:18;17.80;;;16.40;;
80557;SDS011;69901;43.524;-5.636;2023-11-19T02:43:45;17.70;;;16.10;;
80557;SDS011;69901;43.524;-5.636;2023-11-19T02:46:10;17.53;;;16.00;;
80557;SDS011;69901;43.524;-5.636;2023-11-19T02:48:36;18.17;;;16.63;;
80557;SDS011;69901;43.524;-5.636;2023-11-19T02:51:02;16.70;;;15.18;;
80557;SDS011;69901;43.524;-5.636;2023-11-19T02:53:37;16.05;;;14.63;;
80557;SDS011;69901;43.524;-5.636;2023-11-19T02:56:03;15.67;;;14.03;;
80557;SDS011;69901;43.524;-5.636;2023-11-19T02:58:37;14.18;;;12.88;;
80557;SDS011;69901;43.524;-5.636;2023-11-19T03:01:04;15.30;;;13.80;;
80557;SDS011;69901;43.524;-5.636;2023-11-19T03:03:38;14.13;;;12.95;;
80557;SDS011;69901;43.524;-5.636;2023-11-19T03:06:05;16.10;;;14.60;;
80557;SDS011;69901;43.524;-5.636;2023-11-19T03:08:31;14.37;;;12.73;;
80557;SDS011;69901;43.524;-5.636;2023-11-19T03:10:58;15.55;;;14.13;;
80557;SDS011;69901;43.524;-5.636;2023-11-19T03:13:24;18.20;;;16.35;;
80557;SDS011;69901;43.524;-5.636;2023-11-19T03:15:49;16.00;;;14.57;;
80557;SDS011;69901;43.524;-5.636;2023-11-19T03:18:15;18.20;;;16.45;;
80557;SDS011;69901;43.524;-5.636;2023-11-19T03:20:40;17.70;;;16.10;;
80557;SDS011;69901;43.524;-5.636;2023-11-19T03:23:06;17.00;;;15.40;;
80557;SDS011;69901;43.524;-5.636;2023-11-19T03:25:31;16.05;;;14.32;;
80557;SDS011;69901;43.524;-5.636;2023-11-19T03:28:01;16.17;;;14.53;;
80557;SDS011;69901;43.524;-5.636;2023-11-19T03:30:28;14.98;;;13.73;;
80557;SDS011;69901;43.524;-5.636;2023-11-19T03:32:54;15.13;;;13.85;;
80557;SDS011;69901;43.524;-5.636;2023-11-19T03:35:21;14.77;;;13.33;;
80557;SDS011;69901;43.524;-5.636;2023-11-19T03:37:47;13.70;;;12.50;;
80557;SDS011;69901;43.524;-5.636;2023-11-19T03:40:12;14.47;;;13.27;;
80557;SDS011;69901;43.524;-5.636;2023-11-19T03:42:38;14.32;;;13.05;;
80557;SDS011;69901;43.524;-5.636;2023-11-19T03:45:05;15.38;;;14.00;;
80557;SDS011;69901;43.524;-5.636;2023-11-19T03:47:33;16.93;;;15.60;;
80557;SDS011;69901;43.524;-5.636;2023-11-19T03:49:59;15.68;;;14.18;;
80557;SDS011;69901;43.524;-5.636;2023-11-19T03:52:25;16.23;;;14.93;;
80557;SDS011;69901;43.524;-5.636;2023-11-19T03:54:52;16.47;;;14.87;;
80557;SDS011;69901;43.524;-5.636;2023-11-19T03:57:18;15.57;;;14.10;;
80557;SDS011;69901;43.524;-5.636;2023-11-19T03:59:43;14.47;;;13.17;;
80557;SDS011;69901;43.524;-5.636;2023-11-19T04:02:09;15.00;;;13.60;;
80557;SDS011;69901;43.524;-5.636;2023-11-19T04:04:35;13.57;;;12.27;;
80557;SDS011;69901;43.524;-5.636;2023-11-19T04:07:01;15.10;;;13.60;;
80557;SDS011;69901;43.524;-5.636;2023-11-19T04:09:28;14.23;;;12.68;;
80557;SDS011;69901;43.524;-5.636;2023-11-19T04:11:54;15.93;;;14.52;;
80557;SDS011;69901;43.524;-5.636;2023-11-19T04:14:19;17.47;;;15.90;;
80557;SDS011;69901;43.524;-5.636;2023-11-19T04:16:44;16.60;;;15.10;;
80557;SDS011;69901;43.524;-5.636;2023-11-19T04:19:10;15.83;;;14.43;;
80557;SDS011;69901;43.524;-5.636;2023-11-19T04:21:36;16.13;;;14.65;;
80557;SDS011;69901;43.524;-5.636;2023-11-19T04:24:02;14.43;;;13.17;;
80557;SDS011;69901;43.524;-5.636;2023-11-19T04:26:28;15.65;;;14.07;;
80557;SDS011;69901;43.524;-5.636;2023-11-19T04:28:53;17.80;;;16.17;;
80557;SDS011;69901;43.524;-5.636;2023-11-19T04:31:19;16.08;;;14.57;;
80557;SDS011;69901;43.524;-5.636;2023-11-19T04:33:44;15.67;;;14.20;;
80557;SDS011;69901;43.524;-5.636;2023-11-19T04:36:10;15.65;;;13.93;;
80557;SDS011;69901;43.524;-5.636;2023-11-19T04:38:38;14.30;;;13.17;;
80557;SDS011;69901;43.524;-5.636;2023-11-19T04:41:04;15.23;;;13.65;;
80557;SDS011;69901;43.524;-5.636;2023-11-19T04:43:30;15.20;;;13.87;;
80557;SDS011;69901;43.524;-5.636;2023-11-19T04:45:56;16.42;;;15.18;;
80557;SDS011;69901;43.524;-5.636;2023-11-19T04:48:22;15.20;;;14.00;;
80557;SDS011;69901;43.524;-5.636;2023-11-19T04:50:48;15.85;;;14.55;;
80557;SDS011;69901;43.524;-5.636;2023-11-19T04:53:16;16.45;;;15.05;;
80557;SDS011;69901;43.524;-5.636;2023-11-19T04:55:42;14.80;;;13.60;;
80557;SDS011;69901;43.524;-5.636;2023-11-19T04:58:08;14.40;;;13.13;;
80557;SDS011;69901;43.524;-5.636;2023-11-19T05:00:34;13.55;;;12.35;;
80557;SDS011;69901;43.524;-5.636;2023-11-19T05:03:01;13.38;;;12.07;;
80557;SDS011;69901;43.524;-5.636;2023-11-19T05:05:26;13.13;;;11.83;;
80557;SDS011;69901;43.524;-5.636;2023-11-19T05:07:52;13.90;;;12.70;;
80557;SDS011;69901;43.524;-5.636;2023-11-19T05:10:17;14.93;;;13.73;;
80557;SDS011;69901;43.524;-5.636;2023-11-19T05:12:45;15.82;;;14.57;;
80557;SDS011;69901;43.524;-5.636;2023-11-19T05:15:10;14.57;;;13.47;;
80557;SDS011;69901;43.524;-5.636;2023-11-19T05:17:37;14.32;;;12.95;;
80557;SDS011;69901;43.524;-5.636;2023-11-19T05:20:02;14.13;;;12.93;;
80557;SDS011;69901;43.524;-5.636;2023-11-19T05:22:28;14.05;;;12.95;;
80557;SDS011;69901;43.524;-5.636;2023-11-19T05:24:53;15.40;;;14.07;;
80557;SDS011;69901;43.524;-5.636;2023-11-19T05:27:20;14.65;;;13.07;;
80557;SDS011;69901;43.524;-5.636;2023-11-19T05:29:45;13.33;;;12.10;;
80557;SDS011;69901;43.524;-5.636;2023-11-19T05:32:11;12.73;;;11.40;;
80557;SDS011;69901;43.524;-5.636;2023-11-19T05:34:36;14.00;;;12.60;;
80557;SDS011;69901;43.524;-5.636;2023-11-19T05:37:01;13.10;;;12.00;;
80557;SDS011;69901;43.524;-5.636;2023-11-19T05:39:28;13.10;;;12.10;;
80557;SDS011;69901;43.524;-5.636;2023-11-19T05:41:53;13.13;;;12.02;;
80557;SDS011;69901;43.524;-5.636;2023-11-19T05:44:19;13.83;;;12.73;;
80557;SDS011;69901;43.524;-5.636;2023-11-19T05:46:45;13.77;;;12.50;;
80557;SDS011;69901;43.524;-5.636;2023-11-19T05:49:11;13.52;;;12.32;;
80557;SDS011;69901;43.524;-5.636;2023-11-19T05:51:38;13.00;;;11.90;;
80557;SDS011;69901;43.524;-5.636;2023-11-19T05:54:06;13.48;;;12.10;;
80557;SDS011;69901;43.524;-5.636;2023-11-19T05:56:32;14.93;;;13.50;;
80557;SDS011;69901;43.524;-5.636;2023-11-19T05:58:58;14.20;;;13.00;;
80557;SDS011;69901;43.524;-5.636;2023-11-19T06:01:29;14.18;;;12.77;;
80557;SDS011;69901;43.524;-5.636;2023-11-19T06:03:54;14.43;;;12.93;;
80557;SDS011;69901;43.524;-5.636;2023-11-19T06:06:20;13.87;;;12.53;;
80557;SDS011;69901;43.524;-5.636;2023-11-19T06:08:45;13.83;;;12.63;;
80557;SDS011;69901;43.524;-5.636;2023-11-19T06:11:11;12.38;;;11.25;;
80557;SDS011;69901;43.524;-5.636;2023-11-19T06:13:43;12.07;;;10.87;;
80557;SDS011;69901;43.524;-5.636;2023-11-19T06:16:09;13.35;;;12.15;;
80557;SDS011;69901;43.524;-5.636;2023-11-19T06:18:36;13.77;;;12.47;;
80557;SDS011;69901;43.524;-5.636;2023-11-19T06:21:01;13.80;;;12.60;;
80557;SDS011;69901;43.524;-5.636;2023-11-19T06:23:27;14.57;;;13.27;;
80557;SDS011;69901;43.524;-5.636;2023-11-19T06:25:52;14.80;;;13.60;;
80557;SDS011;69901;43.524;-5.636;2023-11-19T06:28:18;14.87;;;13.67;;
80557;SDS011;69901;43.524;-5.636;2023-11-19T06:30:44;16.27;;;14.98;;
80557;SDS011;69901;43.524;-5.636;2023-11-19T06:33:12;15.53;;;14.03;;
80557;SDS011;69901;43.524;-5.636;2023-11-19T06:35:38;14.50;;;13.07;;
80557;SDS011;69901;43.524;-5.636;2023-11-19T06:38:04;16.33;;;14.87;;
80557;SDS011;69901;43.524;-5.636;2023-11-19T06:40:30;15.90;;;14.63;;
80557;SDS011;69901;43.524;-5.636;2023-11-19T06:42:56;16.52;;;15.13;;
80557;SDS011;69901;43.524;-5.636;2023-11-19T06:45:22;16.63;;;15.43;;
80557;SDS011;69901;43.524;-5.636;2023-11-19T06:47:48;14.90;;;13.75;;
80557;SDS011;69901;43.524;-5.636;2023-11-19T06:50:13;14.80;;;13.50;;
80557;SDS011;69901;43.524;-5.636;2023-11-19T06:52:40;15.97;;;14.77;;
80557;SDS011;69901;43.524;-5.636;2023-11-19T06:55:05;15.90;;;14.60;;
80557;SDS011;69901;43.524;-5.636;2023-11-19T06:57:31;16.48;;;15.13;;
80557;SDS011;69901;43.524;-5.636;2023-11-19T06:59:57;15.67;;;14.17;;
80557;SDS011;69901;43.524;-5.636;2023-11-19T07:02:23;14.95;;;13.70;;
80557;SDS011;69901;43.524;-5.636;2023-11-19T07:04:49;14.37;;;13.07;;
80557;SDS011;69901;43.524;-5.636;2023-11-19T07:07:15;15.13;;;13.93;;
80557;SDS011;69901;43.524;-5.636;2023-11-19T07:09:41;15.63;;;14.02;;
80557;SDS011;69901;43.524;-5.636;2023-11-19T07:12:06;14.87;;;13.40;;
80557;SDS011;69901;43.524;-5.636;2023-11-19T07:14:32;18.47;;;16.77;;
80557;SDS011;69901;43.524;-5.636;2023-11-19T07:16:57;16.60;;;14.90;;
80557;SDS011;69901;43.524;-5.636;2023-11-19T07:19:23;19.37;;;17.67;;
80557;SDS011;69901;43.524;-5.636;2023-11-19T07:21:48;17.53;;;15.83;;
80557;SDS011;69901;43.524;-5.636;2023-11-19T07:24:14;18.63;;;16.92;;
80557;SDS011;69901;43.524;-5.636;2023-11-19T07:26:43;16.93;;;15.43;;
80557;SDS011;69901;43.524;-5.636;2023-11-19T07:29:09;17.38;;;15.77;;
80557;SDS011;69901;43.524;-5.636;2023-11-19T07:31:35;15.60;;;13.70;;
80557;SDS011;69901;43.524;-5.636;2023-11-19T07:34:01;15.93;;;14.52;;
80557;SDS011;69901;43.524;-5.636;2023-11-19T07:36:26;14.97;;;13.57;;
80557;SDS011;69901;43.524;-5.636;2023-11-19T07:38:52;16.23;;;14.73;;
80557;SDS011;69901;43.524;-5.636;2023-11-19T07:41:18;17.70;;;15.93;;
80557;SDS011;69901;43.524;-5.636;2023-11-19T07:43:45;19.02;;;16.75;;
80557;SDS011;69901;43.524;-5.636;2023-11-19T07:46:12;18.75;;;16.60;;
80557;SDS011;69901;43.524;-5.636;2023-11-19T07:48:39;17.42;;;15.65;;
80557;SDS011;69901;43.524;-5.636;2023-11-19T07:51:05;15.90;;;14.30;;
80557;SDS011;69901;43.524;-5.636;2023-11-19T07:53:31;14.83;;;13.23;;
80557;SDS011;69901;43.524;-5.636;2023-11-19T07:55:57;16.00;;;14.40;;
80557;SDS011;69901;43.524;-5.636;2023-11-19T07:58:24;14.95;;;13.55;;
80557;SDS011;69901;43.524;-5.636;2023-11-19T08:00:50;14.90;;;13.60;;
80557;SDS011;69901;43.524;-5.636;2023-11-19T08:03:17;14.70;;;13.30;;
80557;SDS011;69901;43.524;-5.636;2023-11-19T08:05:44;13.75;;;12.50;;
80557;SDS011;69901;43.524;-5.636;2023-11-19T08:08:09;15.77;;;14.43;;
80557;SDS011;69901;43.524;-5.636;2023-11-19T08:10:35;15.50;;;14.00;;
80557;SDS011;69901;43.524;-5.636;2023-11-19T08:13:01;15.57;;;14.07;;
80557;SDS011;69901;43.524;-5.636;2023-11-19T08:15:26;17.07;;;15.57;;
80557;SDS011;69901;43.524;-5.636;2023-11-19T08:17:52;17.92;;;16.33;;
80557;SDS011;69901;43.524;-5.636;2023-11-19T08:20:18;16.37;;;14.70;;
80557;SDS011;69901;43.524;-5.636;2023-11-19T08:22:43;17.73;;;16.02;;
80557;SDS011;69901;43.524;-5.636;2023-11-19T08:25:09;16.57;;;14.57;;
80557;SDS011;69901;43.524;-5.636;2023-11-19T08:27:34;17.07;;;15.37;;
80557;SDS011;69901;43.524;-5.636;2023-11-19T08:30:00;18.20;;;16.48;;
80557;SDS011;69901;43.524;-5.636;2023-11-19T08:32:26;17.63;;;15.83;;
80557;SDS011;69901;43.524;-5.636;2023-11-19T08:34:52;17.30;;;15.60;;
80557;SDS011;69901;43.524;-5.636;2023-11-19T08:37:18;19.10;;;17.10;;
80557;SDS011;69901;43.524;-5.636;2023-11-19T08:39:48;18.70;;;17.20;;
80557;SDS011;69901;43.524;-5.636;2023-11-19T08:42:14;17.58;;;16.10;;
80557;SDS011;69901;43.524;-5.636;2023-11-19T08:44:40;17.38;;;15.98;;
80557;SDS011;69901;43.524;-5.636;2023-11-19T08:47:11;17.23;;;15.82;;
80557;SDS011;69901;43.524;-5.636;2023-11-19T08:49:37;16.20;;;14.90;;
80557;SDS011;69901;43.524;-5.636;2023-11-19T08:52:04;15.88;;;14.48;;
80557;SDS011;69901;43.524;-5.636;2023-11-19T08:54:32;17.90;;;16.45;;
80557;SDS011;69901;43.524;-5.636;2023-11-19T08:56:58;15.32;;;14.02;;
80557;SDS011;69901;43.524;-5.636;2023-11-19T08:59:24;16.17;;;14.82;;
80557;SDS011;69901;43.524;-5.636;2023-11-19T09:01:49;14.43;;;13.13;;
80557;SDS011;69901;43.524;-5.636;2023-11-19T09:04:15;15.47;;;14.07;;
80557;SDS011;69901;43.524;-5.636;2023-11-19T09:06:41;16.90;;;15.60;;
80557;SDS011;69901;43.524;-5.636;2023-11-19T09:09:07;17.23;;;15.73;;
80557;SDS011;69901;43.524;-5.636;2023-11-19T09:11:33;14.70;;;13.40;;
80557;SDS011;69901;43.524;-5.636;2023-11-19T09:13:58;16.83;;;15.47;;
80557;SDS011;69901;43.524;-5.636;2023-11-19T09:16:24;15.93;;;14.68;;
80557;SDS011;69901;43.524;-5.636;2023-11-19T09:18:50;16.63;;;15.32;;
80557;SDS011;69901;43.524;-5.636;2023-11-19T09:21:16;15.47;;;14.27;;
80557;SDS011;69901;43.524;-5.636;2023-11-19T09:23:41;16.60;;;15.13;;
80557;SDS011;69901;43.524;-5.636;2023-11-19T09:26:08;15.60;;;14.37;;
80557;SDS011;69901;43.524;-5.636;2023-11-19T09:28:35;15.65;;;14.35;;
80557;SDS011;69901;43.524;-5.636;2023-11-19T09:31:00;16.17;;;14.88;;
80557;SDS011;69901;43.524;-5.636;2023-11-19T09:33:29;16.40;;;15.10;;
80557;SDS011;69901;43.524;-5.636;2023-11-19T09:35:55;14.97;;;13.80;;
80557;SDS011;69901;43.524;-5.636;2023-11-19T09:38:20;16.07;;;14.67;;
80557;SDS011;69901;43.524;-5.636;2023-11-19T09:40:46;16.17;;;14.95;;
80557;SDS011;69901;43.524;-5.636;2023-11-19T09:43:12;16.30;;;14.90;;
80557;SDS011;69901;43.524;-5.636;2023-11-19T09:45:49;15.57;;;14.38;;
80557;SDS011;69901;43.524;-5.636;2023-11-19T09:48:19;15.73;;;14.55;;
80557;SDS011;69901;43.524;-5.636;2023-11-19T09:50:48;15.02;;;13.82;;
80557;SDS011;69901;43.524;-5.636;2023-11-19T09:53:15;16.33;;;15.13;;
80557;SDS011;69901;43.524;-5.636;2023-11-19T09:55:41;16.20;;;14.80;;
80557;SDS011;69901;43.524;-5.636;2023-11-19T09:58:06;15.63;;;14.32;;
80557;SDS011;69901;43.524;-5.636;2023-11-19T10:00:33;15.63;;;14.23;;
80557;SDS011;69901;43.524;-5.636;2023-11-19T10:02:59;16.20;;;14.77;;
80557;SDS011;69901;43.524;-5.636;2023-11-19T10:05:25;15.82;;;14.38;;
80557;SDS011;69901;43.524;-5.636;2023-11-19T10:07:51;13.68;;;12.48;;
80557;SDS011;69901;43.524;-5.636;2023-11-19T10:10:17;14.73;;;13.40;;
80557;SDS011;69901;43.524;-5.636;2023-11-19T10:12:47;15.18;;;13.68;;
80557;SDS011;69901;43.524;-5.636;2023-11-19T10:15:33;14.18;;;12.85;;
80557;SDS011;69901;43.524;-5.636;2023-11-19T10:18:01;14.43;;;12.98;;
80557;SDS011;69901;43.524;-5.636;2023-11-19T10:20:29;14.48;;;13.27;;
80557;SDS011;69901;43.524;-5.636;2023-11-19T10:23:00;16.10;;;14.47;;
80557;SDS011;69901;43.524;-5.636;2023-11-19T10:25:26;14.68;;;13.18;;
80557;SDS011;69901;43.524;-5.636;2023-11-19T10:27:53;14.43;;;13.13;;
80557;SDS011;69901;43.524;-5.636;2023-11-19T10:33:08;14.70;;;13.13;;
80557;SDS011;69901;43.524;-5.636;2023-11-19T10:35:34;15.15;;;13.55;;
80557;SDS011;69901;43.524;-5.636;2023-11-19T10:38:15;17.50;;;14.65;;
80557;SDS011;69901;43.524;-5.636;2023-11-19T10:40:41;15.57;;;14.07;;
80557;SDS011;69901;43.524;-5.636;2023-11-19T10:43:07;15.27;;;13.83;;
80557;SDS011;69901;43.524;-5.636;2023-11-19T10:45:34;15.45;;;13.85;;
80557;SDS011;69901;43.524;-5.636;2023-11-19T10:48:00;14.88;;;13.45;;
80557;SDS011;69901;43.524;-5.636;2023-11-19T10:50:31;15.30;;;13.70;;
80557;SDS011;69901;43.524;-5.636;2023-11-19T10:52:57;14.30;;;12.87;;
80557;SDS011;69901;43.524;-5.636;2023-11-19T10:55:29;14.98;;;12.70;;
80557;SDS011;69901;43.524;-5.636;2023-11-19T10:58:03;15.80;;;13.40;;
80557;SDS011;69901;43.524;-5.636;2023-11-19T11:00:39;14.23;;;12.77;;
80557;SDS011;69901;43.524;-5.636;2023-11-19T11:03:20;14.88;;;13.35;;
80557;SDS011;69901;43.524;-5.636;2023-11-19T11:05:50;14.88;;;13.02;;
80557;SDS011;69901;43.524;-5.636;2023-11-19T11:08:16;14.68;;;13.18;;
80557;SDS011;69901;43.524;-5.636;2023-11-19T11:10:43;14.20;;;12.85;;
80557;SDS011;69901;43.524;-5.636;2023-11-19T11:13:10;13.77;;;12.37;;
80557;SDS011;69901;43.524;-5.636;2023-11-19T11:15:38;13.93;;;12.60;;
80557;SDS011;69901;43.524;-5.636;2023-11-19T11:18:07;13.15;;;11.77;;
80557;SDS011;69901;43.524;-5.636;2023-11-19T11:20:34;13.25;;;11.65;;
80557;SDS011;69901;43.524;-5.636;2023-11-19T11:33:59;14.10;;;12.63;;
80557;SDS011;69901;43.524;-5.636;2023-11-19T11:39:31;15.00;;;12.73;;
80557;SDS011;69901;43.524;-5.636;2023-11-19T11:45:01;16.15;;;12.75;;
80557;SDS011;69901;43.524;-5.636;2023-11-19T11:50:15;17.00;;;13.68;;
80557;SDS011;69901;43.524;-5.636;2023-11-19T11:55:28;15.43;;;13.25;;
80557;SDS011;69901;43.524;-5.636;2023-11-19T11:57:59;15.10;;;13.60;;
80557;SDS011;69901;43.524;-5.636;2023-11-19T12:00:58;15.68;;;13.65;;
80557;SDS011;69901;43.524;-5.636;2023-11-19T12:03:19;15.32;;;13.80;;
80557;SDS011;69901;43.524;-5.636;2023-11-19T12:05:48;14.13;;;12.63;;
80557;SDS011;69901;43.524;-5.636;2023-11-19T12:08:16;18.20;;;14.35;;
80557;SDS011;69901;43.524;-5.636;2023-11-19T12:10:51;18.27;;;13.88;;
80557;SDS011;69901;43.524;-5.636;2023-11-19T12:13:19;18.33;;;13.60;;
80557;SDS011;69901;43.524;-5.636;2023-11-19T12:18:29;18.63;;;13.13;;
80557;SDS011;69901;43.524;-5.636;2023-11-19T12:20:56;17.65;;;13.20;;
80557;SDS011;69901;43.524;-5.636;2023-11-19T12:23:22;17.92;;;13.48;;
80557;SDS011;69901;43.524;-5.636;2023-11-19T12:25:48;15.18;;;12.00;;
80557;SDS011;69901;43.524;-5.636;2023-11-19T12:28:14;16.57;;;12.77;;
80557;SDS011;69901;43.524;-5.636;2023-11-19T12:30:44;15.10;;;13.60;;
80557;SDS011;69901;43.524;-5.636;2023-11-19T12:33:11;15.38;;;12.85;;
80557;SDS011;69901;43.524;-5.636;2023-11-19T12:35:40;14.85;;;12.90;;
80557;SDS011;69901;43.524;-5.636;2023-11-19T12:38:07;14.73;;;12.60;;
80557;SDS011;69901;43.524;-5.636;2023-11-19T12:40:34;17.38;;;13.30;;
80557;SDS011;69901;43.524;-5.636;2023-11-19T12:42:59;14.10;;;12.60;;
80557;SDS011;69901;43.524;-5.636;2023-11-19T12:45:35;12.97;;;11.77;;
80557;SDS011;69901;43.524;-5.636;2023-11-19T12:48:04;14.45;;;12.95;;
80557;SDS011;69901;43.524;-5.636;2023-11-19T12:50:49;12.77;;;11.55;;
80557;SDS011;69901;43.524;-5.636;2023-11-19T12:53:19;11.75;;;10.65;;
80557;SDS011;69901;43.524;-5.636;2023-11-19T12:55:45;12.27;;;11.07;;
80557;SDS011;69901;43.524;-5.636;2023-11-19T12:58:27;14.48;;;11.15;;
80557;SDS011;69901;43.524;-5.636;2023-11-19T13:01:03;12.07;;;10.93;;
80557;SDS011;69901;43.524;-5.636;2023-11-19T13:03:30;11.35;;;10.35;;
80557;SDS011;69901;43.524;-5.636;2023-11-19T13:06:01;12.85;;;11.35;;
80557;SDS011;69901;43.524;-5.636;2023-11-19T13:08:36;15.68;;;11.55;;
80557;SDS011;69901;43.524;-5.636;2023-11-19T13:11:03;13.15;;;11.57;;
80557;SDS011;69901;43.524;-5.636;2023-11-19T13:13:29;12.20;;;11.00;;
80557;SDS011;69901;43.524;-5.636;2023-11-19T13:16:02;12.45;;;10.95;;
80557;SDS011;69901;43.524;-5.636;2023-11-19T13:18:30;12.45;;;11.35;;
80557;SDS011;69901;43.524;-5.636;2023-11-19T13:20:56;12.37;;;11.07;;
80557;SDS011;69901;43.524;-5.636;2023-11-19T13:23:22;11.95;;;10.75;;
80557;SDS011;69901;43.524;-5.636;2023-11-19T13:25:48;12.07;;;10.83;;
80557;SDS011;69901;43.524;-5.636;2023-11-19T13:28:14;12.35;;;11.07;;
80557;SDS011;69901;43.524;-5.636;2023-11-19T13:30:39;13.63;;;10.82;;
80557;SDS011;69901;43.524;-5.636;2023-11-19T13:33:05;14.23;;;11.70;;
80557;SDS011;69901;43.524;-5.636;2023-11-19T13:35:30;13.23;;;10.70;;
80557;SDS011;69901;43.524;-5.636;2023-11-19T13:37:56;12.43;;;11.33;;
80557;SDS011;69901;43.524;-5.636;2023-11-19T13:40:21;11.93;;;10.57;;
80557;SDS011;69901;43.524;-5.636;2023-11-19T13:42:49;12.68;;;11.27;;
80557;SDS011;69901;43.524;-5.636;2023-11-19T13:45:15;13.37;;;12.07;;
80557;SDS011;69901;43.524;-5.636;2023-11-19T13:47:43;13.82;;;12.10;;
80557;SDS011;69901;43.524;-5.636;2023-11-19T13:50:10;13.63;;;12.27;;
80557;SDS011;69901;43.524;-5.636;2023-11-19T13:52:37;12.38;;;11.38;;
80557;SDS011;69901;43.524;-5.636;2023-11-19T13:55:07;12.68;;;11.43;;
80557;SDS011;69901;43.524;-5.636;2023-11-19T13:57:37;13.18;;;11.45;;
80557;SDS011;69901;43.524;-5.636;2023-11-19T14:00:07;12.52;;;11.15;;
80557;SDS011;69901;43.524;-5.636;2023-11-19T14:02:40;12.80;;;11.43;;
80557;SDS011;69901;43.524;-5.636;2023-11-19T14:05:07;12.77;;;11.60;;
80557;SDS011;69901;43.524;-5.636;2023-11-19T14:07:36;14.05;;;12.75;;
80557;SDS011;69901;43.524;-5.636;2023-11-19T14:10:02;14.38;;;12.98;;
80557;SDS011;69901;43.524;-5.636;2023-11-19T14:12:30;14.18;;;12.32;;
80557;SDS011;69901;43.524;-5.636;2023-11-19T14:14:55;12.67;;;11.57;;
80557;SDS011;69901;43.524;-5.636;2023-11-19T14:17:21;13.17;;;11.83;;
80557;SDS011;69901;43.524;-5.636;2023-11-19T14:19:46;13.55;;;12.20;;
80557;SDS011;69901;43.524;-5.636;2023-11-19T14:22:12;13.03;;;11.93;;
80557;SDS011;69901;43.524;-5.636;2023-11-19T14:24:38;13.87;;;12.50;;
80557;SDS011;69901;43.524;-5.636;2023-11-19T14:27:05;13.23;;;12.10;;
80557;SDS011;69901;43.524;-5.636;2023-11-19T14:29:31;13.73;;;12.33;;
80557;SDS011;69901;43.524;-5.636;2023-11-19T14:31:56;13.35;;;12.07;;
80557;SDS011;69901;43.524;-5.636;2023-11-19T14:34:23;13.70;;;12.30;;
80557;SDS011;69901;43.524;-5.636;2023-11-19T14:36:49;13.63;;;12.33;;